Time;durP1;ratioP1;P1;durP2;ratioP2;P2;SDS_P1;SDS_P2;PMS_P1;PMS_P2;Temp;Humidity;BMP_temperature;BMP_pressure;BME280_temperature;BME280_humidity;BME280_pressure;Samples;Min_cycle;Max_cycle;Signal;HPM_P1;HPM_P2
2024/04/11 00:02:06;;;;;;;13.30;5.00;;;;;;;5.49;68.32;102726.59;108202;1260;74424;-65
2024/04/11 00:04:33;;;;;;;17.20;5.60;;;;;;;5.47;68.42;102730.13;108165;1259;138821;-64
2024/04/11 00:06:59;;;;;;;16.60;5.70;;;;;;;5.46;68.50;102735.07;108454;1260;73680;-64
2024/04/11 00:09:27;;;;;;;15.80;5.10;;;;;;;5.42;68.51;102732.91;108745;1260;60670;-64
2024/04/11 00:11:54;;;;;;;14.20;5.00;;;;;;;5.40;68.60;102733.61;108265;1260;138727;-62
2024/04/11 00:14:20;;;;;;;14.70;4.90;;;;;;;5.40;68.68;102733.20;107891;1260;74453;-63
2024/04/11 00:16:47;;;;;;;17.80;5.50;;;;;;;5.36;68.68;102731.91;108017;1260;141179;-67
2024/04/11 00:19:14;;;;;;;15.70;5.30;;;;;;;5.33;68.80;102726.27;108228;1260;73419;-66
2024/04/11 00:21:40;;;;;;;16.20;5.40;;;;;;;5.30;68.86;102725.50;108289;1260;60620;-66
2024/04/11 00:24:08;;;;;;;13.00;4.70;;;;;;;5.28;69.08;102726.38;108827;1260;59794;-67
2024/04/11 00:26:34;;;;;;;12.60;5.10;;;;;;;5.24;69.15;102731.86;108852;1259;76652;-67
2024/04/11 00:29:02;;;;;;;17.30;6.00;;;;;;;5.21;69.16;102732.50;108199;1260;139960;-67
2024/04/11 00:31:29;;;;;;;16.90;6.10;;;;;;;5.18;69.10;102729.94;108249;1259;72287;-67
2024/04/11 00:33:56;;;;;;;15.90;5.80;;;;;;;5.14;69.21;102724.95;108169;1260;140344;-66
2024/04/11 00:36:22;;;;;;;18.50;7.20;;;;;;;5.10;69.44;102726.58;108249;1260;59836;-68
2024/04/11 00:38:51;;;;;;;21.40;7.20;;;;;;;5.07;69.46;102731.00;108632;1260;74659;-66
2024/04/11 00:41:19;;;;;;;21.10;8.00;;;;;;;5.04;69.58;102729.90;108459;1258;138591;-66
2024/04/11 00:43:47;;;;;;;17.90;6.70;;;;;;;5.02;69.76;102725.89;108241;1259;71724;-66
2024/04/11 00:46:14;;;;;;;18.20;6.30;;;;;;;4.99;69.94;102725.16;108028;1260;139285;-66
2024/04/11 00:48:42;;;;;;;18.70;6.70;;;;;;;4.97;69.93;102723.90;108228;1260;62420;-66
2024/04/11 00:51:09;;;;;;;17.10;5.90;;;;;;;4.94;70.03;102727.20;108419;1259;74907;-66
2024/04/11 00:53:35;;;;;;;18.40;5.50;;;;;;;4.91;70.20;102727.43;108613;1260;139150;-66
2024/04/11 00:56:04;;;;;;;15.00;4.90;;;;;;;4.88;70.15;102731.95;108770;1260;71644;-66
2024/04/11 00:58:31;;;;;;;17.00;6.30;;;;;;;4.85;70.26;102732.39;108310;1260;139143;-66
2024/04/11 01:00:58;;;;;;;13.90;5.40;;;;;;;4.82;70.30;102732.55;108104;1262;61450;-63
2024/04/11 01:03:24;;;;;;;14.40;6.30;;;;;;;4.81;70.40;102735.37;107871;1260;76568;-63
2024/04/11 01:05:52;;;;;;;15.10;6.40;;;;;;;4.79;70.45;102736.42;108021;1260;139652;-64
2024/04/11 01:08:19;;;;;;;17.60;6.00;;;;;;;4.77;70.56;102733.48;108034;1260;72611;-63
2024/04/11 01:10:45;;;;;;;19.80;6.20;;;;;;;4.75;70.69;102732.66;108333;1260;138197;-63
2024/04/11 01:13:12;;;;;;;20.30;6.80;;;;;;;4.74;70.78;102731.86;108243;1260;60796;-63
2024/04/11 01:15:39;;;;;;;14.00;6.00;;;;;;;4.72;70.84;102728.24;108221;1260;74212;-63
2024/04/11 01:18:05;;;;;;;13.60;6.30;;;;;;;4.70;70.88;102727.88;108217;1260;138058;-64
2024/04/11 01:20:32;;;;;;;18.00;5.90;;;;;;;4.66;70.86;102733.70;108278;1260;73935;-64
2024/04/11 01:22:59;;;;;;;15.30;5.80;;;;;;;4.62;71.00;102733.35;108644;1260;139403;-64
2024/04/11 01:25:29;;;;;;;17.50;6.10;;;;;;;4.60;70.95;102732.11;108727;1259;60883;-64
2024/04/11 01:27:56;;;;;;;19.60;5.90;;;;;;;4.58;71.11;102736.63;108092;1260;138941;-63
2024/04/11 01:30:23;;;;;;;16.60;5.70;;;;;;;4.55;71.17;102738.17;107797;1260;65267;-63
2024/04/11 01:32:49;;;;;;;17.30;5.80;;;;;;;4.54;71.28;102744.84;108157;1260;71843;-67
2024/04/11 01:35:16;;;;;;;18.20;6.00;;;;;;;4.52;71.31;102745.70;108305;1260;138660;-67
2024/04/11 01:37:43;;;;;;;14.50;6.20;;;;;;;4.50;71.37;102747.10;108729;1260;62028;-67
2024/04/11 01:40:10;;;;;;;15.00;5.30;;;;;;;4.48;71.50;102751.16;108743;1260;139339;-67
2024/04/11 01:42:36;;;;;;;15.80;6.60;;;;;;;4.47;71.50;102750.41;108324;1260;66499;-67
2024/04/11 01:45:03;;;;;;;18.20;5.60;;;;;;;4.47;71.60;102749.85;108275;1259;72530;-67
2024/04/11 01:47:30;;;;;;;19.70;5.30;;;;;;;4.47;71.54;102752.81;108118;1260;140726;-67
2024/04/11 01:49:56;;;;;;;13.10;5.20;;;;;;;4.47;71.74;102753.89;108107;1260;59980;-67
2024/04/11 01:52:23;;;;;;;14.60;5.70;;;;;;;4.48;71.93;102754.27;108485;1260;139230;-65
2024/04/11 01:54:50;;;;;;;15.30;5.90;;;;;;;4.46;71.73;102755.72;108603;1260;59799;-65
2024/04/11 01:57:16;;;;;;;14.00;5.30;;;;;;;4.46;71.94;102758.13;108756;1260;73743;-65
2024/04/11 01:59:43;;;;;;;15.20;5.50;;;;;;;4.47;71.93;102758.77;108566;1260;138205;-66
2024/04/11 02:02:09;;;;;;;18.80;5.40;;;;;;;4.47;71.90;102757.88;108290;1260;61459;-66
2024/04/11 02:04:36;;;;;;;19.70;5.70;;;;;;;4.47;72.09;102756.98;108186;1260;139698;-63
2024/04/11 02:07:04;;;;;;;23.00;5.90;;;;;;;4.46;72.15;102758.16;108159;1260;66038;-65
2024/04/11 02:09:31;;;;;;;17.40;5.70;;;;;;;4.46;72.31;102758.83;108470;1260;70579;-66
2024/04/11 02:11:58;;;;;;;18.10;5.00;;;;;;;4.46;72.29;102759.66;108273;1260;139535;-66
2024/04/11 02:14:24;;;;;;;16.50;5.60;;;;;;;4.45;72.32;102763.12;108298;1259;61134;-65
2024/04/11 02:16:54;;;;;;;19.90;5.70;;;;;;;4.45;72.32;102763.05;108182;1260;138806;-66
2024/04/11 02:19:21;;;;;;;18.40;5.50;;;;;;;4.45;72.55;102764.47;108274;1263;67034;-66
2024/04/11 02:21:48;;;;;;;16.10;5.40;;;;;;;4.46;72.66;102764.56;108477;1259;139398;-66
2024/04/11 02:24:18;;;;;;;16.30;5.10;;;;;;;4.47;72.52;102764.80;108744;1260;60268;-67
2024/04/11 02:26:52;;;;;;;15.80;5.40;;;;;;;4.48;72.65;102765.45;108625;1259;60956;-63
2024/04/11 02:29:19;;;;;;;17.30;5.60;;;;;;;4.49;72.65;102767.73;108082;1259;138654;-63
2024/04/11 02:31:49;;;;;;;15.60;5.80;;;;;;;4.49;72.82;102770.17;108083;1260;228245;-67
2024/04/11 02:34:18;;;;;;;15.00;5.60;;;;;;;4.50;72.82;102767.14;108114;1260;139371;-67
2024/04/11 02:36:47;;;;;;;15.70;5.30;;;;;;;4.52;72.78;102767.65;108226;1260;59717;-66
2024/04/11 02:39:15;;;;;;;15.30;5.30;;;;;;;4.54;72.91;102768.11;108706;1260;62261;-66
2024/04/11 02:41:43;;;;;;;8.80;4.50;;;;;;;4.55;72.82;102769.27;108544;1260;138939;-67
2024/04/11 02:44:10;;;;;;;15.40;4.90;;;;;;;4.56;72.95;102769.49;108385;1259;66053;-67
2024/04/11 02:46:36;;;;;;;16.40;5.70;;;;;;;4.57;72.93;102775.20;108148;1260;138810;-65
2024/04/11 02:49:05;;;;;;;15.90;6.00;;;;;;;4.59;72.91;102775.67;108303;1260;60088;-65
2024/04/11 02:51:34;;;;;;;14.20;4.90;;;;;;;4.59;72.84;102774.49;108489;1260;61213;-65
2024/04/11 02:54:05;;;;;;;12.00;4.80;;;;;;;4.60;72.92;102771.21;108705;1260;138347;-65
2024/04/11 02:56:31;;;;;;;18.70;6.10;;;;;;;4.60;72.83;102771.60;108668;1260;67469;-66
2024/04/11 02:58:58;;;;;;;14.70;4.80;;;;;;;4.59;72.92;102769.83;108210;1260;138041;-66
2024/04/11 03:01:25;;;;;;;14.80;5.70;;;;;;;4.59;72.89;102765.05;108352;1259;59861;-66
2024/04/11 03:03:56;;;;;;;10.80;4.10;;;;;;;4.57;72.92;102767.86;108175;1260;138356;-65
2024/04/11 03:06:23;;;;;;;14.40;5.00;;;;;;;4.55;72.91;102763.67;108354;1260;74128;-66
2024/04/11 03:08:51;;;;;;;16.30;4.90;;;;;;;4.52;72.91;102762.44;108764;1260;59805;-66
2024/04/11 03:11:18;;;;;;;14.50;5.00;;;;;;;4.50;72.80;102764.86;108329;1260;139080;-65
2024/04/11 03:13:44;;;;;;;15.30;5.40;;;;;;;4.47;72.90;102767.92;108379;1260;59943;-65
2024/04/11 03:16:11;;;;;;;13.60;5.50;;;;;;;4.45;73.05;102763.61;108196;1260;139678;-65
2024/04/11 03:18:40;;;;;;;11.30;5.00;;;;;;;4.41;72.79;102763.10;108247;1260;76782;-65
2024/04/11 03:21:07;;;;;;;14.60;4.80;;;;;;;4.40;72.98;102765.26;108438;1260;66688;-65
2024/04/11 03:23:33;;;;;;;12.50;4.80;;;;;;;4.37;72.83;102767.61;108710;1259;138925;-65
2024/04/11 03:26:00;;;;;;;15.00;5.00;;;;;;;4.35;73.02;102764.68;108699;1260;59796;-66
2024/04/11 03:28:27;;;;;;;15.20;6.20;;;;;;;4.33;73.04;102765.41;107975;1260;139837;-65
2024/04/11 03:30:53;;;;;;;14.60;5.70;;;;;;;4.31;72.88;102770.61;108150;1260;75376;-65
2024/04/11 03:33:20;;;;;;;12.90;4.70;;;;;;;4.30;72.94;102770.04;108249;1259;59908;-65
2024/04/11 03:35:56;;;;;;;12.30;5.30;;;;;;;4.30;73.03;102772.07;107955;1260;138139;-65
2024/04/11 03:38:24;;;;;;;11.90;5.20;;;;;;;4.27;73.26;102767.69;108730;1260;60223;-65
2024/04/11 03:41:13;;;;;;;11.50;5.40;;;;;;;4.26;73.19;102772.67;108697;1260;137817;-65
2024/04/11 03:43:41;;;;;;;12.80;4.90;;;;;;;4.23;73.30;102775.39;108291;1260;75655;-65
2024/04/11 03:46:07;;;;;;;13.20;5.80;;;;;;;4.20;73.32;102775.44;108169;1260;138570;-65
2024/04/11 03:48:34;;;;;;;14.80;5.70;;;;;;;4.20;73.31;102776.48;108350;1260;72326;-66
2024/04/11 03:51:11;;;;;;;12.60;5.00;;;;;;;4.19;73.41;102776.77;108249;1260;60049;-64
2024/04/11 03:53:37;;;;;;;14.80;5.10;;;;;;;4.20;73.56;102779.98;108446;1260;139314;-64
2024/04/11 03:56:10;;;;;;;15.40;5.10;;;;;;;4.21;73.79;102781.97;108320;1260;74385;-68
2024/04/11 03:58:37;;;;;;;14.20;5.90;;;;;;;4.23;73.80;102780.05;108282;1260;139156;-67
2024/04/11 04:01:12;;;;;;;14.40;5.40;;;;;;;4.28;74.02;102772.30;108288;1260;73042;-65
2024/04/11 04:03:42;;;;;;;14.20;5.30;;;;;;;4.36;74.15;102776.07;108426;1259;59981;-65
2024/04/11 04:06:10;;;;;;;13.70;5.10;;;;;;;4.45;74.15;102780.11;108468;1260;59874;-64
2024/04/11 04:08:38;;;;;;;17.30;6.90;;;;;;;4.70;74.59;102780.89;108609;1260;75624;-64
2024/04/11 04:11:05;;;;;;;12.50;5.70;;;;;;;5.07;74.82;102773.60;108620;1259;138931;-65
2024/04/11 04:13:37;;;;;;;15.40;5.10;;;;;;;5.43;74.57;102775.62;108717;1260;73879;-65
2024/04/11 04:16:14;;;;;;;13.70;5.10;;;;;;;5.62;73.80;102779.04;108339;1263;139171;-65
2024/04/11 04:18:41;;;;;;;12.40;5.60;;;;;;;5.63;73.09;102779.23;108305;1260;61413;-64
2024/04/11 04:21:08;;;;;;;14.10;4.80;;;;;;;5.61;72.93;102778.19;108188;1260;75339;-65
2024/04/11 04:23:35;;;;;;;13.90;5.40;;;;;;;5.60;72.91;102776.60;108287;1260;140072;-65
2024/04/11 04:26:05;;;;;;;18.10;5.20;;;;;;;5.70;73.05;102776.67;108657;1260;72105;-65
2024/04/11 04:28:32;;;;;;;12.60;5.40;;;;;;;6.33;74.29;102779.00;108566;1261;137784;-65
2024/04/11 04:31:11;;;;;;;15.00;5.20;;;;;;;7.50;74.93;102778.17;108391;1259;61413;-65
2024/04/11 04:33:37;;;;;;;16.90;5.50;;;;;;;8.87;74.53;102773.05;108544;1260;74653;-65
2024/04/11 04:36:06;;;;;;;13.30;4.80;;;;;;;10.05;73.55;102771.52;108696;1260;138600;-65
2024/04/11 04:38:32;;;;;;;14.00;6.00;;;;;;;11.23;72.50;102763.86;108724;1260;74070;-66
2024/04/11 04:40:59;;;;;;;11.20;4.80;;;;;;;12.29;71.04;102764.02;108560;1260;138440;-65
2024/04/11 04:43:25;;;;;;;10.40;5.40;;;;;;;13.35;69.92;102763.81;108528;1260;61004;-66
2024/04/11 04:45:52;;;;;;;13.50;5.30;;;;;;;14.36;68.40;102765.42;108561;1260;139410;-65
2024/04/11 04:48:18;;;;;;;12.90;4.70;;;;;;;15.27;67.08;102763.36;108735;1259;67664;-66
2024/04/11 04:50:45;;;;;;;15.50;4.70;;;;;;;16.13;65.66;102761.71;108619;1260;72907;-64
2024/04/11 04:53:12;;;;;;;10.80;4.60;;;;;;;17.00;64.38;102763.49;108540;1260;138475;-64
2024/04/11 04:55:38;;;;;;;11.80;4.90;;;;;;;17.84;62.99;102759.71;108706;1263;59926;-63
2024/04/11 04:58:05;;;;;;;16.90;7.80;;;;;;;18.53;61.40;102755.80;108242;1260;138372;-63
2024/04/11 05:00:32;;;;;;;12.50;6.10;;;;;;;19.16;60.19;102757.98;108722;1260;66694;-68
2024/04/11 05:03:08;;;;;;;11.30;5.50;;;;;;;19.67;58.86;102757.27;108307;1262;72952;-67
2024/04/11 05:05:38;;;;;;;14.10;5.10;;;;;;;20.17;57.49;102755.89;108139;1262;139474;-65
2024/04/11 05:08:08;;;;;;;11.00;5.00;;;;;;;20.57;56.31;102749.58;108292;1260;60361;-67
2024/04/11 05:10:35;;;;;;;11.60;4.70;;;;;;;20.52;54.67;102753.27;108495;1260;138716;-65
2024/04/11 05:13:09;;;;;;;10.70;4.70;;;;;;;19.91;53.03;102748.27;108759;1260;67388;-67
2024/04/11 05:15:36;;;;;;;12.40;4.60;;;;;;;18.99;51.82;102748.37;108771;1260;71505;-66
2024/04/11 05:18:04;;;;;;;12.50;4.60;;;;;;;17.99;51.41;102749.10;108619;1260;139317;-65
2024/04/11 05:20:33;;;;;;;11.30;4.30;;;;;;;17.11;51.59;102753.20;108805;1260;60340;-67
2024/04/11 05:23:06;;;;;;;10.10;4.80;;;;;;;16.38;51.86;102752.82;108558;1260;138291;-66
2024/04/11 05:25:33;;;;;;;11.90;4.60;;;;;;;15.73;52.25;102750.92;108668;1260;67524;-66
2024/04/11 05:28:00;;;;;;;9.40;4.50;;;;;;;15.18;52.58;102749.77;108533;1260;138458;-66
2024/04/11 05:30:27;;;;;;;9.00;4.40;;;;;;;14.75;53.16;102752.02;108798;1260;59968;-65
2024/04/11 05:32:59;;;;;;;11.80;4.70;;;;;;;14.45;53.58;102753.23;108845;1260;61614;-66
2024/04/11 05:35:26;;;;;;;9.60;5.10;;;;;;;14.20;53.87;102755.18;108616;1260;138359;-66
2024/04/11 05:37:55;;;;;;;13.30;5.00;;;;;;;14.03;54.15;102756.95;108828;1260;65782;-67
2024/04/11 05:40:22;;;;;;;13.50;5.20;;;;;;;13.82;54.31;102753.02;108549;1259;138173;-67
2024/04/11 05:42:49;;;;;;;14.10;5.20;;;;;;;13.60;54.68;102755.05;108806;1260;59743;-67
2024/04/11 05:45:17;;;;;;;17.60;5.70;;;;;;;13.32;54.75;102758.06;108789;1260;60562;-66
2024/04/11 05:47:44;;;;;;;12.40;5.20;;;;;;;13.14;55.27;102756.48;108619;1260;138654;-66
2024/04/11 05:50:13;;;;;;;16.90;4.40;;;;;;;13.03;55.68;102754.54;108798;1260;66298;-66
2024/04/11 05:52:40;;;;;;;11.40;4.10;;;;;;;12.89;55.85;102751.43;108667;1260;138239;-66
2024/04/11 05:55:10;;;;;;;16.80;4.40;;;;;;;12.74;56.08;102753.55;108723;1260;60120;-66
2024/04/11 05:57:37;;;;;;;10.30;4.00;;;;;;;12.62;56.43;102760.20;108822;1260;59924;-65
2024/04/11 06:00:08;;;;;;;15.40;4.80;;;;;;;12.53;56.72;102759.74;108664;1260;138632;-67
2024/04/11 06:02:38;;;;;;;11.20;4.60;;;;;;;12.48;57.08;102756.87;108796;1260;64783;-65
2024/04/11 06:05:06;;;;;;;18.70;4.30;;;;;;;12.39;57.20;102762.02;108612;1260;138417;-65
2024/04/11 06:07:39;;;;;;;17.30;3.90;;;;;;;12.23;57.33;102764.44;108782;1260;59807;-66
2024/04/11 06:10:06;;;;;;;9.80;4.00;;;;;;;12.15;57.63;102766.52;108734;1260;139032;-65
2024/04/11 06:12:33;;;;;;;11.30;3.90;;;;;;;12.10;57.78;102766.58;108846;1260;75907;-66
2024/04/11 06:14:59;;;;;;;9.40;3.30;;;;;;;12.02;57.77;102770.94;108802;1260;66495;-65
2024/04/11 06:17:29;;;;;;;15.90;3.60;;;;;;;11.95;58.07;102770.59;108680;1260;138907;-65
2024/04/11 06:19:55;;;;;;;9.50;3.40;;;;;;;11.90;58.07;102771.38;108762;1260;59686;-65
2024/04/11 06:22:22;;;;;;;9.70;3.30;;;;;;;11.86;58.26;102772.53;108695;1262;138726;-65
2024/04/11 06:24:49;;;;;;;15.90;3.90;;;;;;;11.83;58.46;102771.52;108737;1260;75645;-65
2024/04/11 06:27:16;;;;;;;13.10;4.50;;;;;;;11.80;58.61;102770.83;108794;1260;66749;-66
2024/04/11 06:29:42;;;;;;;18.50;3.80;;;;;;;11.79;58.76;102767.93;108717;1260;138607;-66
2024/04/11 06:32:12;;;;;;;17.00;3.70;;;;;;;11.77;58.92;102770.66;108829;1260;59819;-66
2024/04/11 06:34:41;;;;;;;14.20;4.00;;;;;;;11.81;59.12;102770.70;108675;1260;138219;-66
2024/04/11 06:37:11;;;;;;;11.00;3.50;;;;;;;11.85;59.28;102773.73;108782;1260;73548;-66
2024/04/11 06:39:38;;;;;;;10.30;3.60;;;;;;;11.89;59.24;102767.77;108823;1260;67347;-66
2024/04/11 06:42:13;;;;;;;7.60;3.00;;;;;;;11.93;59.31;102768.17;108696;1260;138122;-66
2024/04/11 06:44:40;;;;;;;10.80;3.30;;;;;;;11.98;59.38;102764.90;108729;1260;59764;-66
2024/04/11 06:47:09;;;;;;;10.40;3.60;;;;;;;12.02;59.26;102761.23;108546;1260;138331;-65
2024/04/11 06:49:39;;;;;;;8.70;2.70;;;;;;;12.06;59.27;102759.33;108675;1260;76637;-65
2024/04/11 06:52:05;;;;;;;7.20;2.60;;;;;;;12.11;59.49;102758.19;108631;1260;138705;-64
2024/04/11 06:54:33;;;;;;;9.30;2.90;;;;;;;12.17;59.62;102753.38;108783;1260;73386;-65
2024/04/11 06:57:03;;;;;;;13.30;3.20;;;;;;;12.23;59.60;102753.49;108766;1260;60351;-65
2024/04/11 06:59:30;;;;;;;12.60;2.70;;;;;;;12.29;59.57;102750.81;108625;1260;139110;-64
2024/04/11 07:01:58;;;;;;;7.90;2.60;;;;;;;12.34;59.55;102752.46;108805;1260;74712;-64
2024/04/11 07:04:24;;;;;;;9.80;3.70;;;;;;;12.40;59.56;102746.42;108680;1260;138157;-64
2024/04/11 07:06:53;;;;;;;7.40;3.40;;;;;;;12.48;59.53;102746.81;108835;1260;72089;-64
2024/04/11 07:09:20;;;;;;;8.90;3.50;;;;;;;12.56;59.56;102743.32;108625;1260;60069;-65
2024/04/11 07:11:48;;;;;;;6.50;2.60;;;;;;;12.62;59.46;102739.95;108702;1260;138132;-65
2024/04/11 07:14:23;;;;;;;8.20;2.60;;;;;;;12.66;59.21;102735.36;108828;1260;76956;-65
2024/04/11 07:16:56;;;;;;;7.30;2.50;;;;;;;12.69;59.08;102728.43;108688;1260;140377;-65
2024/04/11 07:19:23;;;;;;;10.70;2.80;;;;;;;12.73;59.05;102731.44;108801;1260;73219;-65
2024/04/11 07:21:50;;;;;;;6.30;2.80;;;;;;;12.78;59.10;102730.48;108732;1260;139117;-65
2024/04/11 07:24:17;;;;;;;8.50;2.80;;;;;;;12.82;58.65;102730.13;108717;1260;60441;-64
2024/04/11 07:26:43;;;;;;;6.20;2.50;;;;;;;12.80;58.62;102727.05;108799;1260;75518;-64
2024/04/11 07:29:10;;;;;;;9.20;2.80;;;;;;;12.83;58.72;102725.44;108669;1260;138391;-65
2024/04/11 07:31:39;;;;;;;9.50;3.00;;;;;;;12.89;58.86;102724.28;108804;1259;71851;-64
2024/04/11 07:34:06;;;;;;;7.30;2.60;;;;;;;12.96;58.93;102722.71;108595;1263;139255;-64
2024/04/11 07:36:38;;;;;;;6.90;2.70;;;;;;;13.08;58.94;102723.92;108742;1260;60431;-64
2024/04/11 07:39:08;;;;;;;8.40;3.00;;;;;;;13.16;58.72;102723.60;108731;1260;76747;-63
2024/04/11 07:41:48;;;;;;;9.70;2.50;;;;;;;13.23;58.57;102726.40;108668;1261;138049;-65
2024/04/11 07:44:22;;;;;;;6.60;2.60;;;;;;;13.31;58.37;102720.77;108663;1260;74089;-64
2024/04/11 07:46:49;;;;;;;9.20;2.80;;;;;;;13.39;58.28;102720.64;108680;1260;138412;-64
2024/04/11 07:49:15;;;;;;;8.10;2.30;;;;;;;13.47;58.09;102714.11;108797;1260;60005;-64
2024/04/11 07:51:42;;;;;;;4.90;2.00;;;;;;;13.55;58.12;102708.30;108837;1260;75770;-65
2024/04/11 07:54:13;;;;;;;5.60;2.10;;;;;;;13.66;58.00;102703.48;108679;1260;137877;-64
2024/04/11 07:56:39;;;;;;;5.70;2.30;;;;;;;13.78;57.92;102702.94;108760;1260;73112;-64
2024/04/11 07:59:07;;;;;;;9.60;2.50;;;;;;;13.90;57.79;102696.05;108658;1260;138495;-64
2024/04/11 08:01:36;;;;;;;7.10;2.30;;;;;;;14.05;57.53;102691.34;108796;1261;61097;-64
2024/04/11 08:04:06;;;;;;;5.80;2.30;;;;;;;14.16;57.31;102690.40;108723;1260;138686;-64
2024/04/11 08:06:34;;;;;;;6.20;2.20;;;;;;;14.28;57.05;102688.80;108743;1260;65903;-64
2024/04/11 08:09:01;;;;;;;5.60;2.00;;;;;;;14.41;56.76;102684.35;108717;1260;73292;-64
2024/04/11 08:11:29;;;;;;;6.20;2.30;;;;;;;14.53;56.69;102681.83;108672;1260;138944;-64
2024/04/11 08:13:57;;;;;;;7.60;1.80;;;;;;;14.66;56.32;102691.55;108801;1260;59976;-65
2024/04/11 08:16:25;;;;;;;10.80;2.20;;;;;;;14.72;55.79;102687.91;108739;1260;138289;-64
2024/04/11 08:18:52;;;;;;;8.30;1.90;;;;;;;14.79;55.83;102688.73;108802;1260;66011;-64
2024/04/11 08:21:18;;;;;;;3.70;1.30;;;;;;;14.91;55.75;102693.77;108792;1260;73547;-65
2024/04/11 08:23:49;;;;;;;5.80;1.60;;;;;;;15.00;55.36;102688.09;108666;1260;137844;-65
2024/04/11 08:26:16;;;;;;;5.10;1.70;;;;;;;15.07;54.89;102689.21;108792;1260;60548;-65
2024/04/11 08:28:43;;;;;;;10.50;2.20;;;;;;;15.10;54.58;102687.77;108692;1260;137813;-65
2024/04/11 08:31:11;;;;;;;10.80;2.00;;;;;;;15.18;54.69;102691.23;108815;1260;65386;-65
2024/04/11 08:33:37;;;;;;;9.40;1.90;;;;;;;15.29;54.66;102686.70;108818;1260;72129;-65
2024/04/11 08:36:05;;;;;;;5.50;1.70;;;;;;;15.32;54.20;102686.98;108680;1260;138003;-65
2024/04/11 08:38:35;;;;;;;9.90;2.00;;;;;;;15.35;54.06;102685.30;108828;1260;59769;-66
2024/04/11 08:41:07;;;;;;;6.80;1.60;;;;;;;15.43;54.13;102678.34;108697;1260;138449;-64
2024/04/11 08:43:35;;;;;;;4.20;1.70;;;;;;;15.54;53.95;102681.77;108798;1260;66447;-64
2024/04/11 08:46:10;;;;;;;9.60;1.80;;;;;;;15.66;53.81;102680.77;108711;1260;139434;-65
2024/04/11 08:48:37;;;;;;;8.30;2.10;;;;;;;15.84;53.88;102676.63;108819;1260;59829;-65
2024/04/11 08:51:20;;;;;;;6.40;1.70;;;;;;;16.02;53.30;102679.34;108795;1260;59776;-65
2024/04/11 08:53:48;;;;;;;8.50;1.60;;;;;;;16.14;52.52;102674.61;108521;1262;138262;-65
2024/04/11 08:56:16;;;;;;;7.00;1.60;;;;;;;16.23;52.40;102675.98;108797;1260;64910;-65
2024/04/11 08:58:43;;;;;;;5.70;1.90;;;;;;;16.37;52.08;102675.00;108683;1260;138306;-65
2024/04/11 09:01:10;;;;;;;5.00;1.60;;;;;;;16.44;51.69;102671.50;108819;1260;59864;-65
2024/04/11 09:03:40;;;;;;;11.20;1.70;;;;;;;16.51;51.66;102669.45;108853;1260;60283;-65
2024/04/11 09:06:12;;;;;;;9.50;1.80;;;;;;;16.61;51.29;102676.64;108628;1260;138021;-65
2024/04/11 09:08:40;;;;;;;5.60;1.80;;;;;;;16.71;50.91;102671.45;108790;1264;67510;-65
2024/04/11 09:11:09;;;;;;;4.40;1.50;;;;;;;16.84;50.69;102670.80;108694;1260;137969;-65
2024/04/11 09:13:36;;;;;;;5.40;2.40;;;;;;;17.06;50.63;102665.05;108794;1260;59713;-65
2024/04/11 09:16:07;;;;;;;3.30;1.40;;;;;;;17.20;50.09;102663.88;108714;1261;140171;-65
2024/04/11 09:18:33;;;;;;;3.70;1.60;;;;;;;17.21;49.72;102661.76;108798;1263;73656;-65
2024/04/11 09:21:00;;;;;;;4.60;1.60;;;;;;;17.23;49.77;102660.40;108787;1260;66064;-65
2024/04/11 09:23:27;;;;;;;3.30;1.60;;;;;;;17.34;49.60;102658.05;108567;1264;138240;-65
2024/04/11 09:25:55;;;;;;;5.40;1.60;;;;;;;17.40;48.84;102660.34;108782;1260;59737;-65
2024/04/11 09:28:23;;;;;;;3.50;1.50;;;;;;;17.34;48.48;102663.02;108606;1260;138552;-65
2024/04/11 09:30:51;;;;;;;4.20;1.70;;;;;;;17.17;48.21;102659.17;108846;1260;74370;-66
2024/04/11 09:33:21;;;;;;;2.90;1.40;;;;;;;17.11;48.20;102657.40;108790;1260;66181;-66
2024/04/11 09:35:52;;;;;;;4.80;1.80;;;;;;;17.09;48.09;102655.75;108531;1260;138487;-66
2024/04/11 09:38:21;;;;;;;5.00;1.80;;;;;;;17.09;47.90;102653.45;108635;1266;59784;-66
2024/04/11 09:40:50;;;;;;;3.90;1.50;;;;;;;17.14;47.70;102653.06;108705;1260;139171;-66
2024/04/11 09:43:17;;;;;;;12.30;2.10;;;;;;;17.21;47.42;102645.08;108769;1260;76423;-65
2024/04/11 09:45:50;;;;;;;9.00;2.00;;;;;;;17.21;47.14;102642.60;108753;1266;66691;-65
2024/04/11 09:48:21;;;;;;;2.60;1.80;;;;;;;17.18;47.01;102640.92;108717;1261;73948;-65
2024/04/11 09:50:48;;;;;;;5.30;2.10;;;;;;;17.19;47.01;102639.72;108778;1260;59845;-65
2024/04/11 09:53:26;;;;;;;4.40;2.20;;;;;;;17.29;46.80;102639.11;108692;1261;139774;-65
2024/04/11 09:55:57;;;;;;;10.00;4.50;;;;;;;17.39;46.57;102633.71;108782;1264;73797;-65
2024/04/11 09:58:28;;;;;;;8.90;3.90;;;;;;;17.52;46.41;102625.17;108613;1266;138325;-65
2024/04/11 10:01:08;;;;;;;7.90;3.50;;;;;;;17.66;46.36;102616.48;108753;1260;71874;-65
2024/04/11 10:03:40;;;;;;;8.20;3.00;;;;;;;17.85;46.39;102613.79;108772;1260;59699;-65
2024/04/11 10:06:14;;;;;;;4.20;1.90;;;;;;;18.01;45.66;102614.35;108699;1260;137911;-65
2024/04/11 10:08:43;;;;;;;4.80;1.90;;;;;;;18.13;45.33;102621.21;108756;1260;76485;-65
2024/04/11 10:11:12;;;;;;;5.30;1.70;;;;;;;18.27;45.11;102616.40;108614;1260;138495;-65
2024/04/11 10:13:42;;;;;;;4.70;1.80;;;;;;;18.40;45.00;102619.52;108801;1260;72838;-66
2024/04/11 10:16:21;;;;;;;12.60;2.40;;;;;;;18.55;44.70;102619.67;108728;1260;138322;-65
2024/04/11 10:19:12;;;;;;;7.40;2.20;;;;;;;18.65;44.37;102621.49;108742;1260;61080;-65
2024/04/11 10:21:39;;;;;;;5.10;2.10;;;;;;;18.63;43.89;102623.04;108803;1260;75289;-66
2024/04/11 10:24:14;;;;;;;6.70;2.40;;;;;;;18.63;43.90;102622.71;108669;1260;137825;-65
2024/04/11 10:26:47;;;;;;;5.30;2.10;;;;;;;18.68;43.65;102625.83;108710;1260;72815;-65
2024/04/11 10:29:26;;;;;;;3.90;1.80;;;;;;;18.72;43.50;102619.50;108617;1260;138369;-65
2024/04/11 10:31:59;;;;;;;4.90;2.30;;;;;;;18.72;43.34;102618.45;108816;1260;61428;-65
2024/04/11 10:34:34;;;;;;;6.40;2.10;;;;;;;18.72;43.19;102614.88;108715;1260;138930;-65
2024/04/11 10:37:02;;;;;;;4.20;1.80;;;;;;;18.68;43.14;102616.75;108813;1260;67286;-65
2024/04/11 10:39:38;;;;;;;2.60;1.40;;;;;;;18.65;43.02;102618.98;108690;1261;72428;-65
2024/04/11 10:42:09;;;;;;;3.80;1.60;;;;;;;18.64;43.09;102618.44;108693;1260;137911;-66
2024/04/11 10:44:39;;;;;;;5.80;1.50;;;;;;;18.69;43.19;102619.42;108810;1260;60751;-65
2024/04/11 10:47:13;;;;;;;6.70;1.70;;;;;;;18.71;42.86;102615.56;108683;1260;138145;-65
2024/04/11 10:49:45;;;;;;;6.20;1.80;;;;;;;18.67;42.80;102619.76;108748;1260;67453;-66
2024/04/11 10:52:12;;;;;;;5.30;1.50;;;;;;;18.67;42.91;102618.34;108754;1260;138536;-66
2024/04/11 10:54:45;;;;;;;5.10;1.50;;;;;;;18.71;42.75;102620.55;108710;1260;59925;-65
2024/04/11 10:57:12;;;;;;;10.90;3.50;;;;;;;18.82;43.03;102623.64;108795;1260;61627;-66
2024/04/11 10:59:50;;;;;;;6.40;1.80;;;;;;;18.93;42.71;102624.77;108691;1260;138729;-65
2024/04/11 11:02:25;;;;;;;2.80;1.40;;;;;;;18.98;42.45;102618.30;108753;1260;64673;-65
2024/04/11 11:04:54;;;;;;;4.60;2.30;;;;;;;18.99;42.30;102625.44;108617;1260;138515;-65
2024/04/11 11:07:31;;;;;;;3.50;1.70;;;;;;;18.98;42.11;102620.43;108813;1260;59797;-65
2024/04/11 11:09:58;;;;;;;6.50;1.80;;;;;;;18.98;41.97;102617.77;108727;1264;138481;-65
2024/04/11 11:12:24;;;;;;;5.70;1.90;;;;;;;18.95;41.92;102616.11;108804;1263;73653;-65
2024/04/11 11:14:53;;;;;;;6.00;2.30;;;;;;;18.83;41.77;102613.52;108731;1260;67239;-65
2024/04/11 11:17:21;;;;;;;8.60;2.60;;;;;;;18.70;41.77;102617.88;108670;1260;137979;-65
2024/04/11 11:19:51;;;;;;;5.40;2.90;;;;;;;18.60;41.72;102615.52;108816;1260;60046;-65